createdAt,value
2023-02-09T00:00:35.692Z,981.83
2023-02-09T00:01:35.706Z,981.90
2023-02-09T00:02:35.567Z,981.88
2023-02-09T00:03:35.564Z,981.85
2023-02-09T00:04:35.456Z,981.91
2023-02-09T00:05:35.383Z,981.89
2023-02-09T00:06:35.341Z,981.84
2023-02-09T00:07:35.254Z,981.87
2023-02-09T00:08:35.224Z,981.88
2023-02-09T00:09:35.156Z,981.85
2023-02-09T00:10:35.084Z,981.92
2023-02-09T00:11:35.012Z,981.95
2023-02-09T00:12:34.949Z,981.89
2023-02-09T00:13:34.920Z,981.95
2023-02-09T00:14:34.829Z,981.92
2023-02-09T00:15:34.777Z,981.96
2023-02-09T00:16:34.771Z,981.95
2023-02-09T00:17:34.692Z,981.97
2023-02-09T00:18:34.634Z,981.97
2023-02-09T00:19:34.505Z,981.99
2023-02-09T00:20:34.467Z,981.95
2023-02-09T00:21:34.398Z,981.91
2023-02-09T00:22:34.320Z,981.91
2023-02-09T00:23:34.324Z,981.89
2023-02-09T00:24:34.229Z,981.86
2023-02-09T00:25:34.323Z,981.85
2023-02-09T00:26:34.074Z,981.79
2023-02-09T00:27:34.032Z,981.83
2023-02-09T00:28:34.012Z,981.83
2023-02-09T00:29:34.002Z,981.81
2023-02-09T00:30:33.904Z,981.78
2023-02-09T00:31:33.807Z,981.77
2023-02-09T00:32:33.700Z,981.78
2023-02-09T00:33:33.715Z,981.80
2023-02-09T00:34:33.608Z,981.77
2023-02-09T00:35:33.531Z,981.82
2023-02-09T00:36:33.466Z,981.84
2023-02-09T00:37:33.418Z,981.84
2023-02-09T00:38:33.388Z,981.86
2023-02-09T00:39:33.279Z,981.87
2023-02-09T00:40:33.227Z,981.89
2023-02-09T00:41:33.170Z,981.86
2023-02-09T00:42:33.146Z,981.84
2023-02-09T00:43:33.068Z,981.83
2023-02-09T00:44:32.990Z,981.83
2023-02-09T00:45:32.953Z,981.86
2023-02-09T00:46:32.871Z,981.84
2023-02-09T00:47:32.827Z,981.80
2023-02-09T00:48:32.725Z,981.79
2023-02-09T00:49:32.716Z,981.81
2023-02-09T00:50:32.632Z,981.81
2023-02-09T00:51:32.585Z,981.78
2023-02-09T00:52:32.506Z,981.76
2023-02-09T00:53:32.446Z,981.78
2023-02-09T00:54:32.397Z,981.79
2023-02-09T00:55:32.301Z,981.76
2023-02-09T00:56:32.233Z,981.78
2023-02-09T00:57:32.183Z,981.75
2023-02-09T00:58:32.109Z,981.75
2023-02-09T00:59:32.115Z,981.77
2023-02-09T01:00:32.032Z,981.80
2023-02-09T01:01:32.075Z,981.80
2023-02-09T01:02:31.882Z,981.80
2023-02-09T01:03:31.816Z,981.77
2023-02-09T01:04:31.891Z,981.78
2023-02-09T01:05:31.694Z,981.80
2023-02-09T01:06:31.661Z,981.79
2023-02-09T01:07:31.613Z,981.76
2023-02-09T01:08:31.621Z,981.76
2023-02-09T01:09:31.442Z,981.76
2023-02-09T01:10:31.395Z,981.78
2023-02-09T01:11:31.355Z,981.75
2023-02-09T01:12:31.316Z,981.76
2023-02-09T01:13:31.194Z,981.72
2023-02-09T01:14:31.146Z,981.72
2023-02-09T01:15:31.109Z,981.77
2023-02-09T01:16:31.082Z,981.73
2023-02-09T01:17:30.941Z,981.71
2023-02-09T01:18:30.907Z,981.68
2023-02-09T01:19:30.850Z,981.68
2023-02-09T01:20:30.806Z,981.70
2023-02-09T01:21:30.720Z,981.73
2023-02-09T01:22:30.660Z,981.72
2023-02-09T01:23:30.590Z,981.71
2023-02-09T01:24:30.552Z,981.70
2023-02-09T01:25:30.480Z,981.68
2023-02-09T01:26:30.400Z,981.73
2023-02-09T01:27:30.355Z,981.69
2023-02-09T01:28:30.342Z,981.65
2023-02-09T01:29:30.198Z,981.68
2023-02-09T01:30:30.244Z,981.63
2023-02-09T01:31:30.253Z,981.63
2023-02-09T01:32:30.081Z,981.61
2023-02-09T01:33:29.968Z,981.53
2023-02-09T01:34:29.921Z,981.50
2023-02-09T01:35:32.105Z,981.51
2023-02-09T01:36:29.813Z,981.47
2023-02-09T01:37:29.760Z,981.46
2023-02-09T01:38:29.652Z,981.41
2023-02-09T01:39:29.599Z,981.38
2023-02-09T01:40:29.572Z,981.39
2023-02-09T01:41:29.490Z,981.37
2023-02-09T01:42:29.423Z,981.37
2023-02-09T01:43:29.388Z,981.33
2023-02-09T01:44:29.309Z,981.35
2023-02-09T01:45:29.269Z,981.30
2023-02-09T01:46:29.322Z,981.30
2023-02-09T01:47:29.126Z,981.25
2023-02-09T01:48:29.060Z,981.27
2023-02-09T01:49:28.994Z,981.22
2023-02-09T01:50:28.958Z,981.29
2023-02-09T01:51:28.882Z,981.25
2023-02-09T01:52:28.818Z,981.21
2023-02-09T01:53:28.768Z,981.22
2023-02-09T01:54:28.672Z,981.27
2023-02-09T01:55:28.656Z,981.24
2023-02-09T01:56:28.563Z,981.23
2023-02-09T01:57:28.512Z,981.26
2023-02-09T01:58:28.463Z,981.17
2023-02-09T01:59:28.385Z,981.18
2023-02-09T02:00:28.350Z,981.17
2023-02-09T02:01:28.398Z,981.12
2023-02-09T02:02:28.240Z,981.12
2023-02-09T02:03:28.151Z,981.09
2023-02-09T02:04:28.061Z,981.07
2023-02-09T02:05:28.046Z,981.06
2023-02-09T02:06:27.972Z,981.07
2023-02-09T02:07:27.891Z,981.04
2023-02-09T02:08:27.814Z,981.01
2023-02-09T02:09:27.763Z,981.01
2023-02-09T02:10:27.697Z,981.02
2023-02-09T02:11:27.690Z,981.02
2023-02-09T02:12:27.603Z,981.02
2023-02-09T02:13:27.549Z,981.01
2023-02-09T02:14:27.463Z,981.03
2023-02-09T02:15:27.448Z,981.02
2023-02-09T02:16:27.330Z,981.03
2023-02-09T02:17:27.279Z,980.99
2023-02-09T02:18:27.188Z,981.04
2023-02-09T02:19:27.174Z,981.03
2023-02-09T02:20:27.106Z,981.03
2023-02-09T02:21:27.039Z,981.04
2023-02-09T02:22:27.003Z,980.98
2023-02-09T02:23:26.933Z,980.95
2023-02-09T02:24:26.842Z,980.92
2023-02-09T02:25:26.762Z,980.93
2023-02-09T02:26:26.732Z,980.90
2023-02-09T02:27:26.653Z,980.80
2023-02-09T02:28:26.648Z,980.83
2023-02-09T02:29:26.527Z,980.81
2023-02-09T02:30:26.531Z,980.75
2023-02-09T02:31:26.497Z,980.75
2023-02-09T02:32:26.326Z,980.75
2023-02-09T02:33:26.282Z,980.73
2023-02-09T02:34:26.236Z,980.70
2023-02-09T02:35:26.168Z,980.72
2023-02-09T02:36:26.121Z,980.70
2023-02-09T02:37:26.071Z,980.71
2023-02-09T02:38:25.975Z,980.72
2023-02-09T02:39:25.910Z,980.73
2023-02-09T02:40:25.868Z,980.72
2023-02-09T02:41:25.802Z,980.71
2023-02-09T02:42:25.777Z,980.78
2023-02-09T02:43:25.656Z,980.72
2023-02-09T02:44:25.667Z,980.71
2023-02-09T02:45:25.567Z,980.70
2023-02-09T02:46:25.551Z,980.69
2023-02-09T02:47:25.400Z,980.71
2023-02-09T02:48:25.377Z,980.73
2023-02-09T02:49:25.293Z,980.70
2023-02-09T02:50:25.300Z,980.68
2023-02-09T02:51:25.203Z,980.68
2023-02-09T02:52:25.120Z,980.71
2023-02-09T02:53:25.028Z,980.72
2023-02-09T02:54:24.987Z,980.72
2023-02-09T02:55:24.964Z,980.75
2023-02-09T02:56:24.902Z,980.73
2023-02-09T02:57:24.799Z,980.77
2023-02-09T02:58:24.754Z,980.80
2023-02-09T02:59:24.670Z,980.78
2023-02-09T03:00:24.613Z,980.85
2023-02-09T03:01:24.712Z,980.81
2023-02-09T03:02:24.534Z,980.81
2023-02-09T03:03:24.430Z,980.85
2023-02-09T03:04:24.374Z,980.88
2023-02-09T03:05:24.418Z,980.86
2023-02-09T03:06:24.292Z,980.86
2023-02-09T03:07:24.212Z,980.84
2023-02-09T03:08:24.122Z,980.79
2023-02-09T03:09:24.065Z,980.82
2023-02-09T03:10:24.037Z,980.76
2023-02-09T03:11:23.985Z,980.79
2023-02-09T03:12:23.884Z,980.79
2023-02-09T03:13:23.821Z,980.79
2023-02-09T03:14:23.776Z,980.77
2023-02-09T03:15:23.696Z,980.76
2023-02-09T03:16:23.725Z,980.74
2023-02-09T03:17:23.614Z,980.76
2023-02-09T03:18:23.488Z,980.76
2023-02-09T03:19:23.478Z,980.75
2023-02-09T03:20:23.415Z,980.70
2023-02-09T03:21:23.420Z,980.73
2023-02-09T03:22:23.293Z,980.72
2023-02-09T03:23:23.216Z,980.76
2023-02-09T03:24:23.185Z,980.71
2023-02-09T03:25:23.095Z,980.75
2023-02-09T03:26:23.039Z,980.72
2023-02-09T03:27:22.992Z,980.72
2023-02-09T03:28:22.934Z,980.75
2023-02-09T03:29:22.857Z,980.71
2023-02-09T03:30:22.761Z,980.73
2023-02-09T03:31:22.824Z,980.74
2023-02-09T03:32:22.654Z,980.76
2023-02-09T03:33:22.617Z,980.75
2023-02-09T03:34:22.555Z,980.71
2023-02-09T03:35:22.465Z,980.76
2023-02-09T03:36:22.418Z,980.74
2023-02-09T03:37:22.373Z,980.74
2023-02-09T03:38:22.288Z,980.76
2023-02-09T03:39:22.208Z,980.71
2023-02-09T03:40:22.158Z,980.71
2023-02-09T03:41:22.120Z,980.71
2023-02-09T03:42:22.063Z,980.71
2023-02-09T03:43:21.974Z,980.74
2023-02-09T03:44:21.908Z,980.71
2023-02-09T03:45:21.844Z,980.73
2023-02-09T03:46:21.806Z,980.72
2023-02-09T03:47:21.721Z,980.69
2023-02-09T03:48:21.686Z,980.65
2023-02-09T03:49:21.607Z,980.63
2023-02-09T03:50:21.544Z,980.65
2023-02-09T03:51:21.485Z,980.62
2023-02-09T03:52:21.398Z,980.61
2023-02-09T03:53:21.434Z,980.61
2023-02-09T03:54:21.325Z,980.58
2023-02-09T03:55:21.240Z,980.60
2023-02-09T03:56:21.184Z,980.63
2023-02-09T03:57:21.089Z,980.61
2023-02-09T03:58:21.031Z,980.64
2023-02-09T03:59:21.014Z,980.68
2023-02-09T04:00:20.916Z,980.63
2023-02-09T04:01:20.933Z,980.66
2023-02-09T04:02:20.841Z,980.62
2023-02-09T04:03:20.744Z,980.61
2023-02-09T04:04:20.699Z,980.61
2023-02-09T04:05:20.604Z,980.57
2023-02-09T04:06:20.536Z,980.54
2023-02-09T04:07:20.523Z,980.54
2023-02-09T04:08:20.414Z,980.51
2023-02-09T04:09:20.349Z,980.53
2023-02-09T04:10:20.326Z,980.60
2023-02-09T04:11:22.143Z,980.53
2023-02-09T04:12:20.192Z,980.50
2023-02-09T04:13:20.101Z,980.52
2023-02-09T04:14:20.065Z,980.44
2023-02-09T04:15:20.013Z,980.49
2023-02-09T04:16:19.966Z,980.45
2023-02-09T04:17:19.866Z,980.41
2023-02-09T04:18:19.824Z,980.47
2023-02-09T04:19:19.738Z,980.42
2023-02-09T04:20:19.731Z,980.47
2023-02-09T04:21:19.743Z,980.45
2023-02-09T04:22:19.571Z,980.47
2023-02-09T04:23:21.016Z,980.46
2023-02-09T04:24:19.431Z,980.44
2023-02-09T04:25:19.394Z,980.48
2023-02-09T04:26:19.311Z,980.46
2023-02-09T04:27:19.232Z,980.45
2023-02-09T04:28:19.243Z,980.48
2023-02-09T04:29:19.120Z,980.46
2023-02-09T04:30:19.092Z,980.46
2023-02-09T04:31:19.129Z,980.46
2023-02-09T04:32:18.936Z,980.51
2023-02-09T04:33:18.868Z,980.54
2023-02-09T04:34:18.868Z,980.56
2023-02-09T04:35:18.748Z,980.57
2023-02-09T04:36:18.676Z,980.54
2023-02-09T04:37:18.624Z,980.54
2023-02-09T04:38:18.566Z,980.55
2023-02-09T04:39:18.507Z,980.53
2023-02-09T04:40:18.439Z,980.57
2023-02-09T04:41:18.386Z,980.59
2023-02-09T04:42:18.313Z,980.52
2023-02-09T04:43:18.271Z,980.50
2023-02-09T04:44:18.224Z,980.50
2023-02-09T04:45:18.127Z,980.49
2023-02-09T04:46:18.105Z,980.43
2023-02-09T04:47:17.988Z,980.48
2023-02-09T04:48:17.972Z,980.42
2023-02-09T04:49:17.881Z,980.38
2023-02-09T04:50:17.793Z,980.39
2023-02-09T04:51:17.771Z,980.38
2023-02-09T04:52:17.678Z,980.38
2023-02-09T04:53:17.630Z,980.33
2023-02-09T04:54:17.646Z,980.41
2023-02-09T04:55:17.493Z,980.40
2023-02-09T04:56:17.447Z,980.39
2023-02-09T04:57:17.416Z,980.40
2023-02-09T04:58:17.335Z,980.30
2023-02-09T04:59:17.311Z,980.37
2023-02-09T05:00:17.170Z,980.26
2023-02-09T05:01:17.189Z,980.35
2023-02-09T05:02:17.044Z,980.30
2023-02-09T05:03:17.055Z,980.35
2023-02-09T05:04:16.986Z,980.39
2023-02-09T05:05:16.910Z,980.24
2023-02-09T05:06:16.821Z,980.30
2023-02-09T05:07:16.795Z,980.28
2023-02-09T05:08:16.692Z,980.28
2023-02-09T05:09:16.619Z,980.27
2023-02-09T05:10:16.594Z,980.26
2023-02-09T05:11:16.538Z,980.27
2023-02-09T05:12:16.448Z,980.31
2023-02-09T05:13:16.378Z,980.35
2023-02-09T05:14:16.352Z,980.36
2023-02-09T05:15:16.262Z,980.34
2023-02-09T05:16:16.269Z,980.38
2023-02-09T05:17:16.141Z,980.37
2023-02-09T05:18:16.090Z,980.34
2023-02-09T05:19:16.034Z,980.36
2023-02-09T05:20:15.958Z,980.35
2023-02-09T05:21:15.894Z,980.33
2023-02-09T05:22:15.829Z,980.36
2023-02-09T05:23:15.785Z,980.34
2023-02-09T05:24:15.713Z,980.32
2023-02-09T05:25:15.638Z,980.39
2023-02-09T05:26:15.579Z,980.37
2023-02-09T05:27:15.532Z,980.34
2023-02-09T05:28:15.570Z,980.35
2023-02-09T05:29:15.370Z,980.34
2023-02-09T05:30:15.329Z,980.35
2023-02-09T05:31:15.411Z,980.36
2023-02-09T05:32:15.250Z,980.36
2023-02-09T05:33:15.179Z,980.36
2023-02-09T05:34:15.089Z,980.39
2023-02-09T05:35:15.022Z,980.47
2023-02-09T05:36:14.952Z,980.39
2023-02-09T05:37:14.886Z,980.38
2023-02-09T05:38:14.847Z,980.39
2023-02-09T05:39:14.792Z,980.38
2023-02-09T05:40:14.765Z,980.38
2023-02-09T05:41:14.651Z,980.39
2023-02-09T05:42:14.573Z,980.43
2023-02-09T05:43:14.560Z,980.40
2023-02-09T05:44:14.462Z,980.42
2023-02-09T05:45:14.378Z,980.42
2023-02-09T05:46:14.333Z,980.40
2023-02-09T05:47:14.304Z,980.33
2023-02-09T05:48:14.233Z,980.38
2023-02-09T05:49:14.148Z,980.43
2023-02-09T05:50:14.228Z,980.39
2023-02-09T05:51:14.030Z,980.40
2023-02-09T05:52:13.965Z,980.41
2023-02-09T05:53:15.233Z,980.41
2023-02-09T05:54:13.847Z,980.39
2023-02-09T05:55:13.785Z,980.41
2023-02-09T05:56:13.719Z,980.40
2023-02-09T05:57:13.626Z,980.43
2023-02-09T05:58:13.619Z,980.37
2023-02-09T05:59:13.488Z,980.36
2023-02-09T06:00:13.452Z,980.32
2023-02-09T06:01:13.390Z,980.42
2023-02-09T06:02:13.351Z,980.38
2023-02-09T06:03:13.270Z,980.36
2023-02-09T06:04:13.239Z,980.37
2023-02-09T06:05:13.150Z,980.35
2023-02-09T06:06:13.100Z,980.33
2023-02-09T06:07:12.995Z,980.31
2023-02-09T06:08:12.984Z,980.30
2023-02-09T06:09:12.915Z,980.26
2023-02-09T06:10:12.858Z,980.24
2023-02-09T06:11:12.769Z,980.23
2023-02-09T06:12:12.694Z,980.24
2023-02-09T06:13:12.626Z,980.23
2023-02-09T06:14:12.570Z,980.33
2023-02-09T06:15:12.530Z,980.31
2023-02-09T06:16:12.533Z,980.32
2023-02-09T06:17:12.409Z,980.37
2023-02-09T06:18:12.315Z,980.39
2023-02-09T06:19:12.260Z,980.39
2023-02-09T06:20:12.194Z,980.42
2023-02-09T06:21:12.177Z,980.48
2023-02-09T06:22:12.073Z,980.49
2023-02-09T06:23:12.011Z,980.47
2023-02-09T06:24:11.972Z,980.44
2023-02-09T06:25:11.882Z,980.47
2023-02-09T06:26:11.843Z,980.47
2023-02-09T06:27:11.759Z,980.47
2023-02-09T06:28:11.763Z,980.47
2023-02-09T06:29:11.671Z,980.47
2023-02-09T06:30:11.615Z,980.47
2023-02-09T06:31:11.681Z,980.51
2023-02-09T06:32:11.593Z,980.53
2023-02-09T06:33:11.398Z,980.49
2023-02-09T06:34:11.352Z,980.50
2023-02-09T06:35:11.256Z,980.51
2023-02-09T06:36:11.218Z,980.51
2023-02-09T06:37:11.130Z,980.53
2023-02-09T06:38:11.133Z,980.51
2023-02-09T06:39:11.027Z,980.56
2023-02-09T06:40:10.976Z,980.58
2023-02-09T06:41:10.919Z,980.60
2023-02-09T06:42:10.857Z,980.58
2023-02-09T06:43:10.774Z,980.58
2023-02-09T06:44:10.706Z,980.62
2023-02-09T06:45:10.654Z,980.65
2023-02-09T06:46:10.631Z,980.64
2023-02-09T06:47:10.553Z,980.62
2023-02-09T06:48:10.509Z,980.65
2023-02-09T06:49:10.388Z,980.65
2023-02-09T06:50:10.369Z,980.61
2023-02-09T06:51:10.246Z,980.62
2023-02-09T06:52:10.184Z,980.64
2023-02-09T06:53:10.130Z,980.61
2023-02-09T06:54:10.139Z,980.52
2023-02-09T06:55:10.026Z,980.45
2023-02-09T06:56:09.987Z,980.44
2023-02-09T06:57:09.909Z,980.37
2023-02-09T06:58:09.809Z,980.43
2023-02-09T06:59:09.806Z,980.45
2023-02-09T07:00:09.711Z,980.46
2023-02-09T07:01:09.733Z,980.45
2023-02-09T07:02:09.564Z,980.43
2023-02-09T07:03:09.554Z,980.46
2023-02-09T07:04:09.458Z,980.47
2023-02-09T07:05:09.412Z,980.41
2023-02-09T07:06:09.344Z,980.45
2023-02-09T07:07:09.276Z,980.44
2023-02-09T07:08:09.236Z,980.45
2023-02-09T07:09:09.172Z,980.47
2023-02-09T07:10:09.055Z,980.50
2023-02-09T07:11:09.122Z,980.47
2023-02-09T07:12:08.947Z,980.42
2023-02-09T07:13:08.914Z,980.45
2023-02-09T07:14:08.833Z,980.47
2023-02-09T07:15:08.763Z,980.50
2023-02-09T07:16:08.789Z,980.49
2023-02-09T07:17:08.649Z,980.47
2023-02-09T07:18:08.595Z,980.47
2023-02-09T07:19:08.524Z,980.49
2023-02-09T07:20:08.493Z,980.46
2023-02-09T07:21:08.411Z,980.51
2023-02-09T07:22:08.340Z,980.49
2023-02-09T07:23:08.293Z,980.53
2023-02-09T07:24:08.239Z,980.57
2023-02-09T07:25:08.153Z,980.54
2023-02-09T07:26:08.112Z,980.52
2023-02-09T07:27:08.051Z,980.50
2023-02-09T07:28:08.006Z,980.53
2023-02-09T07:29:07.928Z,980.65
2023-02-09T07:30:07.867Z,980.77
2023-02-09T07:31:07.987Z,980.86
2023-02-09T07:32:07.788Z,980.84
2023-02-09T07:33:07.676Z,980.83
2023-02-09T07:34:07.600Z,980.90
2023-02-09T07:35:07.553Z,980.92
2023-02-09T07:36:07.515Z,980.98
2023-02-09T07:37:07.411Z,981.01
2023-02-09T07:38:07.351Z,981.13
2023-02-09T07:39:07.296Z,981.08
2023-02-09T07:40:07.476Z,981.00
2023-02-09T07:41:07.188Z,981.03
2023-02-09T07:42:07.131Z,981.03
2023-02-09T07:43:07.073Z,981.01
2023-02-09T07:44:07.002Z,981.04
2023-02-09T07:45:08.135Z,981.12
2023-02-09T07:46:06.896Z,981.17
2023-02-09T07:47:06.829Z,981.18
2023-02-09T07:48:07.755Z,981.14
2023-02-09T07:49:06.719Z,981.18
2023-02-09T07:50:06.678Z,981.19
2023-02-09T07:51:06.637Z,981.24
2023-02-09T07:52:06.549Z,981.17
2023-02-09T07:53:06.495Z,981.25
2023-02-09T07:54:07.474Z,981.27
2023-02-09T07:55:06.380Z,981.37
2023-02-09T07:56:06.380Z,981.38
2023-02-09T07:57:06.298Z,981.41
2023-02-09T07:58:06.231Z,981.35
2023-02-09T07:59:06.184Z,981.36
2023-02-09T08:00:06.123Z,981.45
2023-02-09T08:01:06.090Z,981.43
2023-02-09T08:02:06.099Z,981.44
2023-02-09T08:03:05.961Z,981.43
2023-02-09T08:04:05.920Z,981.44
2023-02-09T08:05:05.924Z,981.39
2023-02-09T08:06:05.856Z,981.39
2023-02-09T08:07:05.785Z,981.39
2023-02-09T08:08:05.769Z,981.40
2023-02-09T08:09:05.668Z,981.43
2023-02-09T08:10:05.631Z,981.45
2023-02-09T08:11:05.572Z,981.45
2023-02-09T08:12:05.581Z,981.46
2023-02-09T08:13:05.492Z,981.51
2023-02-09T08:14:05.421Z,981.52
2023-02-09T08:15:05.395Z,981.53
2023-02-09T08:16:05.341Z,981.56
2023-02-09T08:17:05.272Z,981.56
2023-02-09T08:18:05.235Z,981.60
2023-02-09T08:19:05.154Z,981.64
2023-02-09T08:20:05.142Z,981.61
2023-02-09T08:21:05.112Z,981.67
2023-02-09T08:22:05.042Z,981.63
2023-02-09T08:23:04.962Z,981.71
2023-02-09T08:24:04.914Z,981.71
2023-02-09T08:25:04.903Z,981.71
2023-02-09T08:26:04.832Z,981.78
2023-02-09T08:27:04.779Z,981.81
2023-02-09T08:28:04.786Z,981.77
2023-02-09T08:29:04.708Z,981.73
2023-02-09T08:30:04.653Z,981.67
2023-02-09T08:31:04.679Z,981.71
2023-02-09T08:32:04.648Z,981.64
2023-02-09T08:33:04.486Z,981.61
2023-02-09T08:34:04.446Z,981.64
2023-02-09T08:35:04.510Z,981.71
2023-02-09T08:36:04.373Z,981.64
2023-02-09T08:37:04.361Z,981.72
2023-02-09T08:38:04.276Z,981.71
2023-02-09T08:39:04.212Z,981.76
2023-02-09T08:40:04.162Z,981.76
2023-02-09T08:41:18.813Z,981.77
2023-02-09T08:42:18.822Z,981.79
2023-02-09T08:43:04.038Z,981.82
2023-02-09T08:44:03.981Z,981.82
2023-02-09T08:45:03.953Z,981.82
2023-02-09T08:46:04.065Z,981.84
2023-02-09T08:47:03.999Z,981.85
2023-02-09T08:48:03.822Z,981.89
2023-02-09T08:49:03.765Z,981.93
2023-02-09T08:50:03.707Z,981.94
2023-02-09T08:51:03.675Z,981.98
2023-02-09T08:52:03.668Z,982.00
2023-02-09T08:53:03.588Z,981.99
2023-02-09T08:54:03.505Z,981.98
2023-02-09T08:55:03.476Z,981.98
2023-02-09T08:56:03.467Z,981.97
2023-02-09T08:57:03.425Z,981.98
2023-02-09T08:58:03.333Z,981.97
2023-02-09T08:59:03.360Z,982.06
2023-02-09T09:00:03.264Z,981.99
2023-02-09T09:01:03.374Z,982.02
2023-02-09T09:02:03.171Z,982.01
2023-02-09T09:03:03.140Z,982.02
2023-02-09T09:04:03.170Z,982.04
2023-02-09T09:05:03.090Z,982.05
2023-02-09T09:06:02.993Z,982.01
2023-02-09T09:07:02.996Z,982.05
2023-02-09T09:08:02.984Z,982.05
2023-02-09T09:09:02.849Z,982.06
2023-02-09T09:10:02.822Z,982.05
2023-02-09T09:11:02.759Z,982.00
2023-02-09T09:12:02.715Z,982.05
2023-02-09T09:13:02.716Z,982.07
2023-02-09T09:14:02.638Z,982.04
2023-02-09T09:15:02.560Z,982.01
2023-02-09T09:16:05.010Z,981.97
2023-02-09T09:17:02.494Z,981.99
2023-02-09T09:18:02.491Z,982.00
2023-02-09T09:19:02.399Z,982.05
2023-02-09T09:20:02.366Z,982.03
2023-02-09T09:21:02.304Z,982.06
2023-02-09T09:22:02.280Z,982.10
2023-02-09T09:23:02.230Z,982.07
2023-02-09T09:24:02.208Z,982.07
2023-02-09T09:25:02.141Z,982.06
2023-02-09T09:26:02.109Z,982.02
2023-02-09T09:27:02.073Z,982.07
2023-02-09T09:28:02.054Z,982.08
2023-02-09T09:29:01.964Z,982.05
2023-02-09T09:30:01.926Z,982.09
2023-02-09T09:31:01.895Z,982.02
2023-02-09T09:32:01.891Z,982.07
2023-02-09T09:33:01.916Z,982.07
2023-02-09T09:34:01.781Z,982.06
2023-02-09T09:35:01.708Z,981.98
2023-02-09T09:36:01.650Z,982.04
2023-02-09T09:37:01.609Z,982.03
2023-02-09T09:38:01.565Z,982.06
2023-02-09T09:39:01.548Z,982.06
2023-02-09T09:40:01.476Z,982.01
2023-02-09T09:41:01.422Z,981.99
2023-02-09T09:42:01.408Z,982.08
2023-02-09T09:43:01.354Z,982.07
2023-02-09T09:44:01.303Z,982.00
2023-02-09T09:45:01.255Z,982.05
2023-02-09T09:46:01.264Z,982.13
2023-02-09T09:47:01.190Z,982.11
2023-02-09T09:48:01.115Z,982.08
2023-02-09T09:49:01.087Z,982.15
2023-02-09T09:50:01.024Z,982.09
2023-02-09T09:51:00.979Z,982.07
2023-02-09T09:52:00.948Z,982.04
2023-02-09T09:53:00.901Z,982.08
2023-02-09T09:54:00.878Z,982.08
2023-02-09T09:55:00.808Z,982.07
2023-02-09T09:56:00.778Z,982.04
2023-02-09T09:57:00.707Z,981.99
2023-02-09T09:58:00.672Z,982.00
2023-02-09T09:59:00.649Z,981.98
2023-02-09T10:00:00.565Z,981.96
2023-02-09T10:01:00.619Z,981.96
2023-02-09T10:02:00.479Z,981.91
2023-02-09T10:03:00.433Z,981.81
2023-02-09T10:04:00.419Z,981.64
2023-02-09T10:05:00.347Z,981.58
2023-02-09T10:06:00.322Z,981.54
2023-02-09T10:07:00.287Z,981.56
2023-02-09T10:08:00.214Z,981.57
2023-02-09T10:09:00.148Z,981.48
2023-02-09T10:10:00.186Z,981.52
2023-02-09T10:11:00.113Z,981.50
2023-02-09T10:12:00.092Z,981.46
2023-02-09T10:12:59.994Z,981.43
2023-02-09T10:13:59.935Z,981.44
2023-02-09T10:14:59.890Z,981.42
2023-02-09T10:15:59.859Z,981.40
2023-02-09T10:16:59.891Z,981.38
2023-02-09T10:17:59.758Z,981.34
2023-02-09T10:18:59.766Z,981.35
2023-02-09T10:19:59.681Z,981.33
2023-02-09T10:20:59.638Z,981.34
2023-02-09T10:21:59.613Z,981.31
2023-02-09T10:22:59.541Z,981.33
2023-02-09T10:23:59.495Z,981.22
2023-02-09T10:24:59.448Z,981.24
2023-02-09T10:25:59.395Z,981.20
2023-02-09T10:26:59.344Z,981.14
2023-02-09T10:27:59.301Z,981.14
2023-02-09T10:28:59.255Z,981.13
2023-02-09T10:29:59.207Z,981.12
2023-02-09T10:30:59.270Z,981.16
2023-02-09T10:31:59.164Z,981.13
2023-02-09T10:32:59.033Z,981.12
2023-02-09T10:33:59.058Z,981.14
2023-02-09T10:34:58.965Z,981.11
2023-02-09T10:35:58.937Z,981.13
2023-02-09T10:36:58.882Z,981.18
2023-02-09T10:37:58.786Z,981.19
2023-02-09T10:38:58.792Z,981.16
2023-02-09T10:39:58.705Z,981.19
2023-02-09T10:40:58.664Z,981.18
2023-02-09T10:41:58.598Z,981.17
2023-02-09T10:42:58.575Z,981.17
2023-02-09T10:43:58.549Z,981.17
2023-02-09T10:44:58.500Z,981.12
2023-02-09T10:45:58.470Z,981.12
2023-02-09T10:46:58.380Z,981.12
2023-02-09T10:47:58.337Z,981.08
2023-02-09T10:48:58.293Z,981.02
2023-02-09T10:49:58.229Z,981.20
2023-02-09T10:50:58.194Z,981.10
2023-02-09T10:51:58.126Z,981.12
2023-02-09T10:52:58.074Z,981.07
2023-02-09T10:53:58.062Z,981.05
2023-02-09T10:54:58.008Z,981.00
2023-02-09T10:55:57.937Z,980.98
2023-02-09T10:56:57.892Z,980.95
2023-02-09T10:57:57.833Z,980.94
2023-02-09T10:58:57.801Z,980.91
2023-02-09T10:59:57.756Z,980.84
2023-02-09T11:00:57.680Z,980.90
2023-02-09T11:01:57.642Z,980.87
2023-02-09T11:02:57.627Z,980.82
2023-02-09T11:03:57.562Z,980.85
2023-02-09T11:04:57.482Z,980.79
2023-02-09T11:05:57.430Z,980.75
2023-02-09T11:06:57.387Z,980.73
2023-02-09T11:07:57.352Z,980.78
2023-02-09T11:08:57.293Z,980.72
2023-02-09T11:09:57.217Z,980.72
2023-02-09T11:10:57.203Z,980.79
2023-02-09T11:11:57.117Z,980.81
2023-02-09T11:12:57.112Z,980.81
2023-02-09T11:13:57.029Z,980.80
2023-02-09T11:14:56.961Z,980.78
2023-02-09T11:15:56.971Z,980.79
2023-02-09T11:16:56.872Z,980.77
2023-02-09T11:17:56.826Z,980.76
2023-02-09T11:18:56.793Z,980.73
2023-02-09T11:19:56.715Z,980.71
2023-02-09T11:20:56.671Z,980.70
2023-02-09T11:21:56.614Z,980.74
2023-02-09T11:22:56.554Z,980.73
2023-02-09T11:23:56.525Z,980.76
2023-02-09T11:24:56.464Z,980.68
2023-02-09T11:25:56.427Z,980.74
2023-02-09T11:26:56.344Z,980.75
2023-02-09T11:27:56.316Z,980.72
2023-02-09T11:28:56.265Z,980.77
2023-02-09T11:29:56.189Z,980.73
2023-02-09T11:30:56.236Z,980.71
2023-02-09T11:31:56.152Z,980.73
2023-02-09T11:32:56.056Z,980.67
2023-02-09T11:33:55.962Z,980.67
2023-02-09T11:34:55.949Z,980.65
2023-02-09T11:35:55.885Z,980.65
2023-02-09T11:36:55.834Z,980.65
2023-02-09T11:37:55.775Z,980.65
2023-02-09T11:38:55.718Z,980.64
2023-02-09T11:39:55.669Z,980.65
2023-02-09T11:40:55.635Z,980.64
2023-02-09T11:41:55.572Z,980.65
2023-02-09T11:42:55.470Z,980.65
2023-02-09T11:43:55.461Z,980.65
2023-02-09T11:44:55.388Z,980.63
2023-02-09T11:45:55.458Z,980.66
2023-02-09T11:46:55.289Z,980.58
2023-02-09T11:47:55.246Z,980.59
2023-02-09T11:48:55.180Z,980.57
2023-02-09T11:49:55.130Z,980.56
2023-02-09T11:50:55.115Z,980.57
2023-02-09T11:51:55.028Z,980.56
2023-02-09T11:52:54.983Z,980.63
2023-02-09T11:53:54.930Z,980.71
2023-02-09T11:54:54.850Z,980.71
2023-02-09T11:55:54.838Z,980.71
2023-02-09T11:56:54.746Z,980.76
2023-02-09T11:57:54.729Z,980.77
2023-02-09T11:58:54.624Z,980.76
2023-02-09T11:59:54.593Z,980.75
2023-02-09T12:01:04.131Z,980.81
2023-02-09T12:01:54.515Z,980.79
2023-02-09T12:02:54.532Z,980.75
2023-02-09T12:03:54.367Z,980.73
2023-02-09T12:04:54.304Z,980.77
2023-02-09T12:05:54.264Z,980.78
2023-02-09T12:06:54.370Z,980.81
2023-02-09T12:07:54.172Z,980.86
2023-02-09T12:08:54.107Z,980.84
2023-02-09T12:09:54.027Z,980.82
2023-02-09T12:10:54.066Z,980.81
2023-02-09T12:11:53.983Z,980.83
2023-02-09T12:12:53.884Z,980.82
2023-02-09T12:13:53.821Z,980.77
2023-02-09T12:14:53.819Z,980.76
2023-02-09T12:15:53.758Z,980.73
2023-02-09T12:16:53.679Z,980.79
2023-02-09T12:17:53.594Z,980.83
2023-02-09T12:18:53.573Z,980.81
2023-02-09T12:19:53.497Z,980.83
2023-02-09T12:20:53.478Z,980.88
2023-02-09T12:21:53.395Z,980.85
2023-02-09T12:22:53.369Z,980.82
2023-02-09T12:23:53.313Z,980.81
2023-02-09T12:24:53.212Z,980.82
2023-02-09T12:25:53.231Z,980.78
2023-02-09T12:26:53.133Z,980.76
2023-02-09T12:27:53.141Z,980.75